Time;durP1;ratioP1;P1;durP2;ratioP2;P2;SDS_P1;SDS_P2;PMS_P1;PMS_P2;Temp;Humidity;BMP_temperature;BMP_pressure;BME280_temperature;BME280_humidity;BME280_pressure;Samples;Min_cycle;Max_cycle;Signal;HPM_P1;HPM_P2
2021/12/22 00:02:19;;;;;;;16.70;9.27;;;3.70;68.10;;;;;;5014230;28;20062;-21
2021/12/22 00:04:47;;;;;;;7.13;4.40;;;3.70;68.00;;;;;;5015170;28;20026;-21
2021/12/22 00:07:15;;;;;;;13.75;7.63;;;3.60;68.00;;;;;;5015665;28;20033;-22
2021/12/22 00:09:42;;;;;;;9.85;6.03;;;3.60;68.30;;;;;;5015823;28;20034;-21
2021/12/22 00:12:09;;;;;;;7.47;3.90;;;3.50;68.30;;;;;;5015603;28;20474;-22
2021/12/22 00:14:35;;;;;;;4.47;3.33;;;3.50;68.00;;;;;;5015517;28;20018;-21
2021/12/22 00:17:02;;;;;;;8.65;5.35;;;3.50;67.90;;;;;;5015447;28;20601;-21
2021/12/22 00:19:27;;;;;;;8.52;5.07;;;3.40;68.30;;;;;;5015475;28;20018;-21
2021/12/22 00:21:53;;;;;;;7.03;4.03;;;3.40;68.40;;;;;;5015343;28;20029;-23
2021/12/22 00:24:19;;;;;;;7.13;3.97;;;3.40;68.10;;;;;;5016294;28;20030;-22
2021/12/22 00:26:45;;;;;;;13.38;7.68;;;3.40;68.00;;;;;;5015266;28;20056;-22
2021/12/22 00:29:13;;;;;;;11.32;5.65;;;3.40;68.40;;;;;;5015086;28;20029;-21
2021/12/22 00:31:44;;;;;;;7.15;4.28;;;3.40;68.40;;;;;;5015496;28;20469;-21
2021/12/22 00:34:17;;;;;;;5.90;3.47;;;3.40;68.20;;;;;;5015567;28;20033;-20
2021/12/22 00:36:46;;;;;;;7.05;3.75;;;3.40;68.00;;;;;;5015160;28;20041;-22
2021/12/22 00:39:12;;;;;;;7.25;3.47;;;3.40;68.10;;;;;;5015889;28;20022;-21
2021/12/22 00:41:38;;;;;;;10.35;5.60;;;3.40;68.20;;;;;;5014969;28;20022;-20
2021/12/22 00:44:05;;;;;;;8.70;5.55;;;3.40;68.30;;;;;;5014826;28;20069;-23
2021/12/22 00:46:31;;;;;;;12.98;7.53;;;3.40;68.30;;;;;;5014735;28;20029;-23
2021/12/22 00:48:57;;;;;;;12.23;6.68;;;3.50;68.30;;;;;;5015077;28;20030;-23
2021/12/22 00:51:23;;;;;;;7.68;4.00;;;3.60;68.50;;;;;;5015161;28;20022;-21
2021/12/22 00:53:48;;;;;;;11.70;6.97;;;3.60;68.10;;;;;;5015364;28;20022;-22
2021/12/22 00:56:15;;;;;;;13.50;8.43;;;3.60;68.30;;;;;;5014962;28;20509;-22
2021/12/22 00:58:40;;;;;;;13.05;6.90;;;3.70;68.50;;;;;;5013902;28;20038;-22
2021/12/22 01:01:06;;;;;;;10.45;7.22;;;3.70;68.40;;;;;;5014856;28;20106;-23
2021/12/22 01:03:35;;;;;;;13.20;8.00;;;3.70;68.10;;;;;;5014609;28;20536;-23
2021/12/22 01:06:03;;;;;;;19.95;11.45;;;3.70;68.10;;;;;;5014581;28;20382;-23
2021/12/22 01:08:29;;;;;;;17.40;9.90;;;3.80;68.60;;;;;;5014241;28;20088;-21
2021/12/22 01:10:55;;;;;;;19.00;10.50;;;3.80;68.50;;;;;;5015132;28;20030;-22
2021/12/22 01:13:21;;;;;;;17.05;10.13;;;3.80;68.50;;;;;;5014372;28;20494;-21
2021/12/22 01:15:47;;;;;;;10.43;5.78;;;3.80;68.40;;;;;;5013939;28;20041;-21
2021/12/22 01:18:17;;;;;;;19.02;11.35;;;3.80;68.10;;;;;;5013031;28;20030;-23
2021/12/22 01:23:20;;;;;;;17.25;10.60;;;3.80;67.90;;;;;;5014910;28;20112;-23
2021/12/22 01:25:48;;;;;;;10.75;6.80;;;3.80;68.00;;;;;;5014228;28;20037;-22
2021/12/22 01:28:16;;;;;;;14.10;7.72;;;3.80;67.80;;;;;;5014196;28;20048;-23
2021/12/22 01:30:45;;;;;;;8.77;5.03;;;3.70;67.60;;;;;;5014627;28;20022;-23
2021/12/22 01:33:12;;;;;;;5.03;3.47;;;3.70;67.50;;;;;;5014363;28;20036;-23
2021/12/22 01:35:38;;;;;;;7.13;4.03;;;3.70;67.40;;;;;;5014539;28;20026;-22
2021/12/22 01:38:05;;;;;;;7.70;4.15;;;3.60;67.20;;;;;;5014013;28;20393;-23
2021/12/22 01:40:34;;;;;;;14.07;7.20;;;3.60;67.10;;;;;;5014075;28;20037;-23
2021/12/22 01:43:02;;;;;;;12.27;6.80;;;3.60;67.10;;;;;;5013789;28;20054;-23
2021/12/22 01:51:28;;;;;;;;;;;3.40;67.30;;;;;;5014302;28;20041;-22
2021/12/22 01:54:01;;;;;;;11.50;6.13;;;3.30;67.60;;;;;;5013680;28;19912;-22
2021/12/22 01:56:29;;;;;;;12.85;7.45;;;3.30;67.50;;;;;;5013878;28;20030;-23
2021/12/22 01:58:59;;;;;;;24.80;12.60;;;3.20;67.50;;;;;;5013657;28;20021;-23
2021/12/22 02:01:28;;;;;;;13.48;6.93;;;3.10;67.60;;;;;;5013863;28;20026;-23
2021/12/22 02:03:55;;;;;;;9.80;6.00;;;3.10;68.10;;;;;;5013610;28;20025;-23
2021/12/22 02:06:22;;;;;;;11.02;6.55;;;3.00;67.90;;;;;;5013716;28;20065;-23
2021/12/22 02:08:49;;;;;;;11.73;6.43;;;3.00;67.90;;;;;;5013408;28;20030;-23
2021/12/22 02:11:17;;;;;;;8.15;5.45;;;2.90;67.80;;;;;;5013515;28;20030;-23
2021/12/22 02:13:49;;;;;;;13.07;7.03;;;2.90;67.90;;;;;;5013474;28;20160;-23
2021/12/22 02:16:16;;;;;;;12.73;7.15;;;2.80;68.10;;;;;;5013508;28;20018;-23
2021/12/22 02:18:49;;;;;;;14.05;8.18;;;2.80;68.10;;;;;;5013772;28;20101;-23
2021/12/22 02:21:17;;;;;;;20.45;12.73;;;2.70;68.30;;;;;;5013730;28;20048;-22
2021/12/22 02:23:44;;;;;;;13.90;8.27;;;2.70;68.40;;;;;;5013741;28;20041;-23
2021/12/22 02:26:29;;;;;;;11.85;6.85;;;2.60;68.30;;;;;;5012700;28;20116;-22
2021/12/22 02:29:03;;;;;;;11.70;6.35;;;2.50;68.80;;;;;;5013660;28;20045;-23
2021/12/22 02:31:33;;;;;;;;;;;2.50;68.60;;;;;;5013985;28;20034;-21
2021/12/22 02:33:59;;;;;;;12.65;7.25;;;2.40;69.50;;;;;;5013639;28;19905;-23
2021/12/22 02:36:29;;;;;;;18.20;10.27;;;2.40;68.90;;;;;;5013072;28;20026;-23
2021/12/22 02:38:58;;;;;;;16.77;9.70;;;2.40;69.00;;;;;;5013561;28;20040;-23
2021/12/22 02:41:29;;;;;;;15.15;9.38;;;2.40;69.60;;;;;;5012017;28;20032;-23
2021/12/22 02:43:57;;;;;;;9.55;6.03;;;2.40;69.30;;;;;;5013096;28;20054;-23
2021/12/22 02:46:31;;;;;;;13.13;7.78;;;2.40;69.10;;;;;;5013151;28;20041;-22
2021/12/22 02:49:00;;;;;;;22.67;11.85;;;2.40;69.10;;;;;;5013459;28;20045;-23
2021/12/22 02:51:28;;;;;;;19.50;12.25;;;2.40;69.60;;;;;;5013188;28;20021;-21
2021/12/22 02:54:06;;;;;;;19.02;11.40;;;2.40;70.10;;;;;;5013395;28;20038;-23
2021/12/22 02:56:40;;;;;;;21.88;11.45;;;2.30;69.90;;;;;;5012957;28;20038;-22
2021/12/22 03:04:09;;;;;;;14.40;7.90;;;2.30;69.80;;;;;;5013362;28;20040;-22
2021/12/22 03:09:21;;;;;;;21.25;12.30;;;2.20;69.60;;;;;;5013456;28;20367;-21
2021/12/22 03:11:48;;;;;;;16.67;8.55;;;2.20;69.50;;;;;;5012910;28;20030;-24
2021/12/22 03:14:15;;;;;;;18.92;9.35;;;2.10;69.40;;;;;;5012711;28;20080;-23
2021/12/22 03:16:44;;;;;;;18.13;10.48;;;2.10;69.40;;;;;;5012415;28;20106;-23
2021/12/22 03:19:13;;;;;;;12.68;7.22;;;2.10;69.80;;;;;;5012905;28;20033;-23
2021/12/22 03:21:42;;;;;;;15.48;8.88;;;2.00;69.70;;;;;;5012842;28;20469;-23
2021/12/22 03:24:10;;;;;;;18.90;10.98;;;1.90;70.00;;;;;;5011907;28;20056;-22
2021/12/22 03:26:41;;;;;;;15.48;8.13;;;1.90;69.80;;;;;;5012579;28;20026;-22
2021/12/22 03:29:16;;;;;;;21.15;11.65;;;1.90;69.80;;;;;;5012773;28;20581;-21
2021/12/22 03:31:44;;;;;;;22.08;12.98;;;1.80;70.30;;;;;;5013002;28;20093;-23
2021/12/22 03:34:11;;;;;;;17.00;9.45;;;1.80;70.50;;;;;;5013030;28;20050;-22
2021/12/22 03:36:37;;;;;;;19.00;10.82;;;1.70;70.70;;;;;;5011363;28;20022;-23
2021/12/22 03:39:05;;;;;;;14.02;8.35;;;1.70;70.40;;;;;;5015462;28;20032;-23
2021/12/22 03:41:32;;;;;;;19.83;10.73;;;1.70;70.70;;;;;;5016524;28;20516;-22
2021/12/22 03:43:58;;;;;;;19.77;10.25;;;1.60;71.00;;;;;;5015888;28;20148;-22
2021/12/22 03:46:24;;;;;;;21.33;12.70;;;1.60;70.80;;;;;;5016081;28;20057;-23
2021/12/22 03:48:50;;;;;;;10.52;6.93;;;1.60;70.60;;;;;;5016200;28;20026;-23
2021/12/22 03:51:16;;;;;;;13.40;7.90;;;1.60;70.60;;;;;;5016299;28;20033;-21
2021/12/22 03:53:42;;;;;;;12.20;5.03;;;1.60;71.10;;;;;;5015916;28;20030;-23
2021/12/22 03:56:08;;;;;;;13.52;6.80;;;1.60;70.70;;;;;;5016210;28;20034;-22
2021/12/22 03:58:34;;;;;;;11.20;5.97;;;1.70;70.80;;;;;;5014418;28;20025;-23
2021/12/22 04:01:00;;;;;;;12.25;6.97;;;1.70;70.60;;;;;;5016040;28;20053;-23
2021/12/22 04:03:30;;;;;;;14.15;7.65;;;1.80;70.70;;;;;;5016061;28;20029;-21
2021/12/22 04:05:58;;;;;;;15.20;8.40;;;1.80;70.60;;;;;;5015772;28;20469;-23
2021/12/22 04:08:24;;;;;;;14.23;7.43;;;1.90;70.40;;;;;;5015428;28;20030;-22
2021/12/22 04:10:51;;;;;;;6.45;3.70;;;1.90;70.30;;;;;;5015702;28;20028;-23
2021/12/22 04:13:20;;;;;;;8.52;4.57;;;1.90;69.90;;;;;;5016051;28;20040;-23
2021/12/22 04:15:47;;;;;;;12.63;6.50;;;2.00;69.70;;;;;;5015462;28;20026;-22
2021/12/22 04:18:15;;;;;;;9.00;4.88;;;2.00;69.70;;;;;;5015245;28;20033;-22
2021/12/22 04:20:41;;;;;;;14.45;6.80;;;2.10;69.50;;;;;;5015743;28;20501;-21
2021/12/22 04:23:08;;;;;;;13.57;7.75;;;2.10;69.70;;;;;;5015386;28;20491;-22
2021/12/22 04:25:35;;;;;;;8.50;5.00;;;2.10;69.80;;;;;;5015348;28;20030;-23
2021/12/22 04:28:05;;;;;;;8.27;4.68;;;2.10;69.40;;;;;;5014091;28;20493;-23
2021/12/22 04:30:34;;;;;;;16.58;9.23;;;2.10;69.30;;;;;;5015453;28;20030;-22
2021/12/22 04:33:01;;;;;;;11.32;6.15;;;2.10;69.40;;;;;;5015195;28;20513;-22
2021/12/22 04:35:28;;;;;;;15.75;8.07;;;2.10;69.50;;;;;;5015446;28;20057;-23
2021/12/22 04:37:54;;;;;;;10.85;5.95;;;2.10;69.80;;;;;;5015426;28;20034;-22
2021/12/22 04:40:20;;;;;;;12.88;6.65;;;2.10;69.80;;;;;;5014859;28;20030;-22
2021/12/22 04:42:46;;;;;;;12.25;6.68;;;2.10;69.60;;;;;;5014912;28;20058;-23
2021/12/22 04:45:14;;;;;;;9.80;6.05;;;2.10;69.60;;;;;;5015257;28;20022;-23
2021/12/22 04:47:41;;;;;;;9.02;5.28;;;2.10;69.70;;;;;;5014931;28;20026;-23
2021/12/22 04:50:14;;;;;;;12.77;6.88;;;2.10;69.50;;;;;;5014959;28;20038;-23
2021/12/22 04:53:06;;;;;;;16.08;8.30;;;2.10;70.10;;;;;;5014865;28;20386;-23
2021/12/22 04:55:31;;;;;;;9.15;5.15;;;2.10;70.30;;;;;;5014702;28;20073;-23
2021/12/22 04:57:58;;;;;;;4.85;3.13;;;2.00;69.90;;;;;;5014919;28;20537;-23
2021/12/22 05:00:27;;;;;;;8.10;5.18;;;2.10;69.60;;;;;;5014408;28;20026;-24
2021/12/22 05:02:54;;;;;;;12.27;7.38;;;2.10;69.50;;;;;;5014636;28;20485;-23
2021/12/22 05:05:21;;;;;;;15.35;8.30;;;2.10;69.70;;;;;;5014881;28;20030;-23
2021/12/22 05:07:47;;;;;;;5.55;3.40;;;2.10;69.70;;;;;;5014860;28;20482;-23
2021/12/22 05:10:16;;;;;;;9.63;5.05;;;2.10;69.60;;;;;;5014272;28;20548;-23
2021/12/22 05:12:43;;;;;;;16.77;9.80;;;2.10;69.50;;;;;;5014760;28;20049;-21
2021/12/22 05:15:09;;;;;;;14.65;7.80;;;2.20;69.50;;;;;;5014784;28;20057;-23
2021/12/22 05:20:06;;;;;;;10.50;5.30;;;2.20;70.00;;;;;;5014398;28;20064;-23
2021/12/22 05:22:33;;;;;;;18.40;8.43;;;2.20;69.80;;;;;;5014094;28;20483;-23
2021/12/22 05:24:59;;;;;;;18.75;9.80;;;2.20;69.30;;;;;;5014435;28;20417;-22
2021/12/22 05:27:26;;;;;;;7.95;4.40;;;2.10;69.50;;;;;;5014475;28;20065;-23
2021/12/22 05:29:52;;;;;;;17.30;9.73;;;2.10;69.40;;;;;;5013966;28;20397;-21
2021/12/22 05:32:18;;;;;;;8.23;4.65;;;2.10;69.20;;;;;;5014193;28;20106;-22
2021/12/22 05:34:44;;;;;;;9.65;4.60;;;2.00;69.30;;;;;;5014087;28;20482;-24
2021/12/22 05:37:10;;;;;;;7.13;3.85;;;1.90;69.20;;;;;;5014041;28;20028;-23
2021/12/22 05:39:36;;;;;;;6.25;3.33;;;1.90;69.40;;;;;;5014194;28;20071;-22
2021/12/22 05:42:02;;;;;;;9.10;5.10;;;1.90;69.10;;;;;;5013930;28;20128;-21
2021/12/22 05:44:28;;;;;;;10.23;5.63;;;1.80;69.30;;;;;;5014025;28;20029;-24
2021/12/22 05:46:54;;;;;;;9.23;4.43;;;1.80;69.20;;;;;;5013772;28;20044;-21
2021/12/22 05:49:20;;;;;;;10.32;5.95;;;1.70;69.30;;;;;;5014054;28;20030;-22
2021/12/22 05:51:46;;;;;;;9.05;4.95;;;1.60;69.40;;;;;;5014433;28;20493;-22
2021/12/22 05:54:12;;;;;;;14.32;5.57;;;1.60;69.30;;;;;;5013686;28;20026;-23
2021/12/22 05:56:38;;;;;;;9.60;5.85;;;1.50;69.30;;;;;;5014092;28;20026;-23
2021/12/22 05:59:05;;;;;;;7.53;4.30;;;1.40;69.70;;;;;;5013743;28;20029;-22
2021/12/22 06:01:31;;;;;;;15.27;7.65;;;1.40;69.70;;;;;;5013030;28;20030;-23
2021/12/22 06:04:02;;;;;;;7.35;4.57;;;1.30;70.00;;;;;;5013657;28;20049;-23
2021/12/22 06:06:29;;;;;;;6.07;3.20;;;1.30;69.90;;;;;;5013685;28;20398;-22
2021/12/22 06:08:56;;;;;;;10.15;5.65;;;1.20;70.10;;;;;;5013855;28;20367;-23
2021/12/22 06:11:22;;;;;;;7.30;3.50;;;1.10;70.20;;;;;;5014166;28;20080;-23
2021/12/22 06:13:48;;;;;;;13.30;6.50;;;1.10;70.20;;;;;;5014123;28;20022;-22
2021/12/22 06:16:14;;;;;;;8.13;4.18;;;1.10;70.40;;;;;;5013381;28;20441;-24
2021/12/22 06:18:44;;;;;;;10.85;5.15;;;1.10;70.30;;;;;;5013455;28;20045;-23
2021/12/22 06:21:13;;;;;;;11.65;6.50;;;1.10;70.40;;;;;;5013484;28;20117;-22
2021/12/22 06:23:39;;;;;;;11.60;5.53;;;1.00;70.60;;;;;;5013724;28;20058;-23
2021/12/22 06:26:06;;;;;;;10.60;5.32;;;1.00;70.70;;;;;;5013359;28;20421;-23
2021/12/22 06:28:32;;;;;;;10.15;5.68;;;1.00;70.50;;;;;;5013410;28;20034;-23
2021/12/22 06:30:58;;;;;;;12.80;6.75;;;1.00;70.60;;;;;;5013426;28;20030;-22
2021/12/22 06:33:24;;;;;;;11.70;6.25;;;1.00;70.80;;;;;;5013624;28;20045;-23
2021/12/22 06:35:51;;;;;;;12.93;6.40;;;0.90;71.00;;;;;;5013422;28;20033;-23
2021/12/22 06:38:17;;;;;;;14.13;7.50;;;0.90;70.90;;;;;;5013222;28;20478;-22
2021/12/22 06:40:43;;;;;;;13.30;7.03;;;0.90;70.60;;;;;;5013543;28;20037;-22
2021/12/22 06:43:09;;;;;;;15.05;8.48;;;0.90;70.90;;;;;;5012104;28;20129;-22
2021/12/22 06:45:36;;;;;;;11.65;7.53;;;0.90;71.10;;;;;;5013051;28;20026;-23
2021/12/22 06:48:02;;;;;;;12.48;6.95;;;0.90;71.40;;;;;;5013994;28;20049;-23
2021/12/22 06:50:28;;;;;;;16.65;9.93;;;0.80;70.90;;;;;;5012937;28;20084;-24
2021/12/22 06:52:54;;;;;;;24.42;13.38;;;0.80;71.00;;;;;;5013137;28;20117;-23
2021/12/22 06:55:20;;;;;;;23.85;13.88;;;0.80;71.70;;;;;;5013427;28;20034;-23
2021/12/22 06:57:47;;;;;;;20.98;11.82;;;0.70;72.40;;;;;;5013396;28;20108;-23
2021/12/22 07:00:14;;;;;;;35.67;19.23;;;0.70;72.30;;;;;;5011625;28;20050;-23
2021/12/22 07:02:40;;;;;;;40.47;22.77;;;0.70;72.60;;;;;;5013277;28;20421;-22
2021/12/22 07:05:09;;;;;;;39.70;21.48;;;0.60;72.90;;;;;;5012974;28;20568;-22
2021/12/22 07:07:36;;;;;;;36.45;19.15;;;0.60;73.80;;;;;;5013253;28;20030;-22
2021/12/22 07:10:10;;;;;;;33.55;18.80;;;0.60;74.00;;;;;;5012941;28;20026;-23
2021/12/22 07:12:47;;;;;;;19.33;10.68;;;0.70;73.90;;;;;;5013823;28;20022;-22
2021/12/22 07:15:18;;;;;;;17.52;10.27;;;0.70;74.60;;;;;;5016633;28;20497;-22
2021/12/22 07:17:47;;;;;;;20.83;11.20;;;0.80;74.20;;;;;;5015451;28;20025;-21
2021/12/22 07:20:14;;;;;;;20.80;12.48;;;0.90;73.60;;;;;;5016557;28;20033;-23
2021/12/22 07:22:40;;;;;;;16.85;8.85;;;0.90;73.60;;;;;;5016515;28;20037;-22
2021/12/22 07:25:08;;;;;;;19.63;11.25;;;1.00;73.40;;;;;;5016807;28;20037;-20
2021/12/22 07:27:34;;;;;;;16.38;8.50;;;1.10;73.60;;;;;;5017488;28;20033;-22
2021/12/22 07:30:00;;;;;;;11.00;6.70;;;1.20;73.40;;;;;;5016190;28;20386;-21
2021/12/22 07:32:26;;;;;;;14.50;8.25;;;1.20;72.80;;;;;;5016470;28;20021;-21
2021/12/22 07:35:07;;;;;;;18.35;9.20;;;1.30;72.90;;;;;;5016629;28;20061;-23
2021/12/22 07:38:00;;;;;;;11.38;6.30;;;1.40;72.20;;;;;;5016614;28;20093;-22
2021/12/22 07:40:26;;;;;;;9.00;4.80;;;1.40;72.00;;;;;;5016160;28;20021;-21
2021/12/22 07:42:52;;;;;;;11.70;6.38;;;1.40;72.20;;;;;;5015953;28;20128;-22
2021/12/22 07:45:18;;;;;;;7.95;4.20;;;1.50;71.80;;;;;;5014821;28;20071;-21
2021/12/22 07:47:44;;;;;;;18.33;10.27;;;1.60;71.60;;;;;;5016669;28;20057;-22
2021/12/22 07:50:10;;;;;;;19.35;10.02;;;1.60;71.90;;;;;;5014917;28;20168;-21
2021/12/22 07:52:36;;;;;;;18.65;10.43;;;1.60;72.10;;;;;;5015814;28;20140;-22
2021/12/22 07:55:04;;;;;;;11.55;7.15;;;1.60;72.10;;;;;;5015942;28;20113;-21
2021/12/22 07:57:30;;;;;;;9.85;4.90;;;1.70;72.00;;;;;;5016245;28;20033;-21
2021/12/22 07:59:56;;;;;;;12.77;7.63;;;1.80;71.90;;;;;;5016121;28;20010;-22
2021/12/22 08:02:22;;;;;;;13.65;7.78;;;1.80;71.90;;;;;;5014418;28;20363;-21
2021/12/22 08:04:48;;;;;;;16.77;9.45;;;1.90;71.80;;;;;;5016106;28;20390;-21
2021/12/22 08:07:14;;;;;;;21.67;15.43;;;2.00;72.10;;;;;;5015786;28;20037;-21
2021/12/22 08:09:40;;;;;;;22.00;13.60;;;2.10;72.40;;;;;;5014436;28;20030;-21
2021/12/22 08:12:07;;;;;;;21.08;13.40;;;2.20;72.30;;;;;;5015926;28;20095;-23
2021/12/22 08:14:34;;;;;;;14.88;8.93;;;2.40;72.20;;;;;;5015369;28;20056;-22
2021/12/22 08:17:00;;;;;;;14.77;8.68;;;2.50;72.00;;;;;;5015511;28;20393;-23
2021/12/22 08:19:27;;;;;;;14.90;8.73;;;2.60;71.80;;;;;;5015462;28;20474;-23
2021/12/22 08:21:54;;;;;;;19.25;11.00;;;2.80;71.50;;;;;;5015486;28;20044;-23
2021/12/22 08:24:20;;;;;;;10.32;5.68;;;2.90;71.40;;;;;;5014489;28;20026;-24
2021/12/22 08:26:46;;;;;;;14.82;8.77;;;3.00;70.80;;;;;;5015269;28;20029;-23
2021/12/22 08:29:11;;;;;;;20.77;11.38;;;3.20;70.40;;;;;;5015587;28;20022;-23
2021/12/22 08:31:37;;;;;;;19.80;11.77;;;3.40;70.20;;;;;;5015491;28;20040;-22
2021/12/22 08:34:05;;;;;;;16.77;9.98;;;3.50;70.10;;;;;;5015526;28;20480;-23
2021/12/22 08:39:17;;;;;;;19.50;10.70;;;3.90;69.40;;;;;;5015437;28;20513;-23
2021/12/22 08:41:47;;;;;;;13.93;8.20;;;4.00;69.10;;;;;;5015354;28;20375;-22
2021/12/22 08:44:16;;;;;;;17.73;10.90;;;4.20;68.70;;;;;;5014620;28;20057;-21
2021/12/22 08:46:48;;;;;;;18.17;10.57;;;4.50;68.40;;;;;;5015189;28;20030;-23
2021/12/22 08:49:15;;;;;;;18.70;12.02;;;4.60;67.80;;;;;;5015164;28;20037;-24
2021/12/22 08:51:41;;;;;;;14.27;8.27;;;4.80;67.60;;;;;;5015161;28;20030;-22
2021/12/22 08:54:07;;;;;;;17.85;9.52;;;5.00;67.60;;;;;;5013590;28;20441;-23
2021/12/22 08:56:33;;;;;;;14.70;7.78;;;5.20;67.20;;;;;;5014882;28;20036;-22
2021/12/22 08:59:00;;;;;;;15.32;9.70;;;5.50;66.60;;;;;;5014702;28;20052;-23
2021/12/22 09:01:27;;;;;;;15.20;8.50;;;5.70;66.40;;;;;;5014749;28;20062;-22
2021/12/22 09:03:54;;;;;;;17.92;10.32;;;6.00;65.80;;;;;;5015257;28;20048;-23
2021/12/22 09:06:20;;;;;;;17.92;10.60;;;6.20;65.30;;;;;;5014568;28;20053;-24
2021/12/22 09:08:47;;;;;;;12.57;7.38;;;6.50;65.10;;;;;;5015535;28;20128;-21
2021/12/22 09:11:13;;;;;;;13.68;8.18;;;6.80;64.60;;;;;;5014800;28;20025;-23
2021/12/22 09:13:41;;;;;;;11.05;6.28;;;7.00;64.00;;;;;;5014639;28;20382;-23
2021/12/22 09:16:09;;;;;;;12.23;6.50;;;7.30;63.50;;;;;;5014511;28;20041;-22
2021/12/22 09:18:36;;;;;;;15.43;8.00;;;7.50;63.30;;;;;;5014507;28;20164;-23
2021/12/22 09:21:04;;;;;;;10.02;5.25;;;7.80;63.00;;;;;;5014948;28;20477;-24
2021/12/22 09:23:30;;;;;;;9.07;5.30;;;8.00;62.60;;;;;;5014258;28;20034;-22
2021/12/22 09:25:56;;;;;;;7.10;4.57;;;8.20;62.50;;;;;;5014608;28;20022;-23
2021/12/22 09:28:22;;;;;;;11.75;5.78;;;8.40;61.90;;;;;;5014386;28;20022;-22
2021/12/22 09:30:49;;;;;;;12.07;7.22;;;8.60;61.20;;;;;;5014308;28;19944;-23
2021/12/22 09:33:18;;;;;;;8.48;4.75;;;8.70;61.50;;;;;;5014421;28;20482;-22
2021/12/22 09:35:48;;;;;;;9.93;5.53;;;8.80;61.30;;;;;;5014153;28;20026;-23
2021/12/22 09:38:15;;;;;;;15.52;8.68;;;8.90;61.30;;;;;;5013836;28;20029;-23
2021/12/22 09:40:41;;;;;;;18.05;10.82;;;9.00;61.30;;;;;;5014014;28;20048;-23
2021/12/22 09:43:08;;;;;;;16.08;8.88;;;9.20;60.30;;;;;;5013789;28;20061;-23
2021/12/22 09:45:40;;;;;;;10.43;6.50;;;9.40;60.70;;;;;;5014195;28;20045;-23
2021/12/22 09:50:52;;;;;;;6.78;4.18;;;9.90;60.50;;;;;;5013979;28;20448;-23
2021/12/22 09:53:21;;;;;;;9.02;4.97;;;10.10;60.50;;;;;;5014165;28;20022;-22
2021/12/22 09:55:49;;;;;;;11.00;6.97;;;10.40;60.00;;;;;;5013812;28;20030;-24
2021/12/22 09:58:16;;;;;;;11.25;7.18;;;10.70;59.40;;;;;;5013909;28;20030;-22
2021/12/22 10:00:44;;;;;;;9.93;6.03;;;10.90;58.50;;;;;;5014456;28;20109;-22
2021/12/22 10:03:11;;;;;;;12.85;6.68;;;11.20;58.40;;;;;;5013629;28;20030;-23
2021/12/22 10:05:39;;;;;;;13.93;7.80;;;11.40;57.90;;;;;;5013943;28;20034;-24
2021/12/22 10:08:20;;;;;;;16.42;8.18;;;11.50;57.60;;;;;;5013730;28;20394;-23
2021/12/22 10:10:59;;;;;;;12.00;6.85;;;11.60;57.20;;;;;;5013852;28;20083;-22
2021/12/22 10:13:26;;;;;;;10.57;6.30;;;11.80;56.90;;;;;;5013756;28;20026;-22
2021/12/22 10:15:53;;;;;;;11.40;6.32;;;11.90;57.30;;;;;;5013426;28;20041;-21
2021/12/22 10:18:22;;;;;;;9.82;6.50;;;12.10;56.60;;;;;;5013229;28;20037;-21
2021/12/22 10:20:50;;;;;;;9.38;5.22;;;12.20;55.10;;;;;;5013727;28;20026;-23
2021/12/22 10:23:35;;;;;;;9.23;5.53;;;12.20;56.10;;;;;;5013401;28;20386;-22
2021/12/22 10:26:05;;;;;;;8.50;5.13;;;12.30;55.40;;;;;;5012163;28;20084;-23
2021/12/22 10:29:11;;;;;;;12.15;6.75;;;12.30;54.90;;;;;;5013134;28;20049;-22
2021/12/22 10:31:43;;;;;;;11.75;6.28;;;12.40;54.50;;;;;;5012120;28;20037;-22
2021/12/22 10:34:19;;;;;;;11.05;5.78;;;12.40;55.30;;;;;;5013402;28;20117;-21
2021/12/22 10:36:50;;;;;;;16.00;7.63;;;12.60;54.30;;;;;;5013342;28;20070;-21
2021/12/22 10:39:29;;;;;;;8.85;4.95;;;12.80;55.30;;;;;;5013291;28;20025;-23
2021/12/22 10:42:16;;;;;;;9.60;5.78;;;12.90;53.50;;;;;;5013059;28;20026;-22
2021/12/22 10:44:47;;;;;;;13.45;8.38;;;13.10;54.10;;;;;;5013573;28;20034;-23
2021/12/22 10:47:34;;;;;;;10.13;5.18;;;13.30;53.40;;;;;;5013238;28;20026;-23
2021/12/22 10:50:04;;;;;;;10.57;5.75;;;13.40;52.90;;;;;;5017117;28;20092;-22
2021/12/22 10:52:32;;;;;;;11.60;5.43;;;13.60;51.70;;;;;;5016940;28;20409;-21
2021/12/22 10:55:13;;;;;;;10.05;5.85;;;13.80;50.70;;;;;;5017326;28;20033;-22
2021/12/22 10:57:42;;;;;;;8.32;4.60;;;13.90;50.50;;;;;;5017340;28;20033;-21
2021/12/22 11:00:22;;;;;;;8.63;4.65;;;14.00;50.80;;;;;;5017133;28;20034;-22
2021/12/22 11:03:09;;;;;;;7.88;4.75;;;14.00;47.70;;;;;;5017678;28;20026;-23
2021/12/22 11:05:49;;;;;;;7.20;4.30;;;13.90;47.30;;;;;;5017118;28;20029;-24
2021/12/22 11:08:23;;;;;;;6.82;4.63;;;13.70;49.90;;;;;;5016908;28;20030;-23
2021/12/22 11:10:50;;;;;;;9.00;5.72;;;13.60;50.70;;;;;;5016738;28;20084;-23
2021/12/22 11:13:22;;;;;;;10.48;5.53;;;13.60;50.70;;;;;;5017022;28;20033;-23
2021/12/22 11:15:49;;;;;;;9.90;5.78;;;13.50;50.90;;;;;;5016577;28;20033;-22
2021/12/22 11:18:27;;;;;;;6.05;4.10;;;13.40;50.30;;;;;;5016413;28;20026;-22
2021/12/22 11:21:28;;;;;;;9.25;5.50;;;13.50;50.50;;;;;;5017048;28;20021;-21
2021/12/22 11:23:56;;;;;;;7.93;4.90;;;13.50;49.50;;;;;;5016620;28;20129;-22
2021/12/22 11:26:22;;;;;;;6.65;4.30;;;13.60;50.70;;;;;;5016280;28;20030;-22
2021/12/22 11:28:49;;;;;;;8.05;5.32;;;13.80;50.70;;;;;;5015055;28;20038;-22
2021/12/22 11:31:15;;;;;;;9.55;4.90;;;14.10;50.30;;;;;;5016341;28;20088;-23
2021/12/22 11:33:44;;;;;;;8.63;5.20;;;14.40;49.40;;;;;;5016362;28;20037;-22
2021/12/22 11:36:12;;;;;;;6.25;4.38;;;14.70;49.40;;;;;;5016364;28;20037;-22
2021/12/22 11:38:40;;;;;;;8.90;5.15;;;15.10;48.00;;;;;;5016297;28;20108;-22
2021/12/22 11:41:16;;;;;;;7.50;4.40;;;15.50;46.20;;;;;;5017390;28;20045;-24
2021/12/22 11:43:44;;;;;;;8.63;5.88;;;15.80;46.50;;;;;;5015990;28;20568;-23
2021/12/22 11:46:10;;;;;;;10.40;6.07;;;16.20;45.90;;;;;;5016035;28;20026;-24
2021/12/22 11:48:38;;;;;;;9.35;5.55;;;16.40;44.10;;;;;;5015879;28;20029;-24
2021/12/22 11:51:28;;;;;;;10.98;5.90;;;16.70;44.20;;;;;;5016381;28;20030;-22
2021/12/22 11:53:55;;;;;;;11.35;6.03;;;17.00;42.00;;;;;;5016362;28;20105;-24
2021/12/22 11:56:46;;;;;;;7.70;4.93;;;17.30;43.80;;;;;;5015736;28;20081;-22
2021/12/22 11:59:30;;;;;;;10.43;6.47;;;17.60;42.00;;;;;;5015867;28;20118;-23
2021/12/22 12:02:24;;;;;;;13.32;6.82;;;17.90;42.40;;;;;;5016093;28;20029;-23
2021/12/22 12:05:12;;;;;;;10.80;6.60;;;18.20;41.30;;;;;;5015805;28;20038;-24
2021/12/22 12:07:52;;;;;;;13.43;8.13;;;18.50;41.90;;;;;;5016135;28;20014;-21
2021/12/22 12:10:40;;;;;;;10.20;6.35;;;18.80;40.60;;;;;;5014322;28;20432;-24
2021/12/22 12:13:23;;;;;;;9.70;5.60;;;19.00;39.80;;;;;;5016510;28;20026;-23
2021/12/22 12:21:55;;;;;;;12.55;8.30;;;19.60;38.40;;;;;;5015831;28;20053;-23
2021/12/22 12:24:34;;;;;;;13.57;7.25;;;19.70;38.00;;;;;;5015301;28;20045;-24
2021/12/22 12:27:21;;;;;;;11.35;6.32;;;19.80;38.90;;;;;;5015244;28;20038;-23
2021/12/22 12:29:57;;;;;;;11.82;6.90;;;19.90;39.40;;;;;;5015194;28;20080;-22
2021/12/22 12:32:42;;;;;;;10.90;6.65;;;19.90;38.00;;;;;;5015260;28;20030;-21
2021/12/22 12:38:06;;;;;;;9.25;5.10;;;19.80;39.00;;;;;;5015514;28;20116;-23
2021/12/22 12:41:11;;;;;;;8.75;5.72;;;19.50;38.50;;;;;;5014976;28;20022;-22
2021/12/22 12:46:20;;;;;;;8.90;5.13;;;19.00;37.30;;;;;;5014970;28;19912;-22
2021/12/22 12:48:56;;;;;;;9.43;5.38;;;18.80;40.60;;;;;;5014890;28;20390;-22
2021/12/22 12:51:33;;;;;;;6.40;4.50;;;18.50;41.90;;;;;;5014958;28;20496;-21
2021/12/22 12:54:15;;;;;;;8.43;5.60;;;18.40;42.10;;;;;;5015157;28;20068;-21
2021/12/22 12:56:49;;;;;;;9.38;6.25;;;18.20;42.00;;;;;;5015169;28;20030;-22
2021/12/22 12:59:27;;;;;;;7.55;5.38;;;18.40;41.60;;;;;;5014836;28;20037;-22
2021/12/22 13:01:52;;;;;;;7.35;4.90;;;18.60;41.80;;;;;;5014987;28;20022;-22
2021/12/22 13:04:26;;;;;;;5.57;4.03;;;18.80;42.00;;;;;;5014552;28;20022;-22
2021/12/22 13:06:53;;;;;;;;;;;19.10;41.70;;;;;;5015110;28;20057;-22
2021/12/22 13:09:31;;;;;;;6.45;4.32;;;19.40;36.90;;;;;;5015256;28;19979;-22
2021/12/22 13:12:17;;;;;;;5.45;3.88;;;19.70;40.30;;;;;;5014069;28;20029;-23
2021/12/22 13:17:41;;;;;;;8.32;4.82;;;20.10;39.40;;;;;;5014864;28;20124;-22
2021/12/22 13:20:12;;;;;;;7.32;4.90;;;20.40;39.10;;;;;;5014465;28;20030;-21
2021/12/22 13:22:40;;;;;;;9.00;5.22;;;20.50;39.00;;;;;;5014429;28;20030;-22
2021/12/22 13:25:09;;;;;;;6.85;4.82;;;20.60;38.80;;;;;;5014536;28;20037;-22
2021/12/22 13:27:36;;;;;;;8.45;4.88;;;20.70;38.60;;;;;;5014294;28;20025;-22
2021/12/22 13:30:23;;;;;;;5.65;3.45;;;20.80;38.50;;;;;;5014420;28;20034;-22
2021/12/22 13:33:16;;;;;;;8.02;5.40;;;20.90;35.90;;;;;;5014537;28;20156;-22
2021/12/22 13:35:44;;;;;;;5.40;3.92;;;21.10;36.80;;;;;;5014478;28;20029;-22
2021/12/22 13:38:18;;;;;;;5.32;3.55;;;21.20;38.30;;;;;;5014094;28;20038;-22
2021/12/22 13:40:52;;;;;;;4.82;3.60;;;21.30;38.60;;;;;;5014422;28;20108;-22